Archival Weather

Chicago O'Hare International

Chicago, Illinois (KORD)

Report from: Tuesday, December 6, 2022 12:51 AM CST
Current time: Saturday, February 4, 2023 10:01 PM CST

Current weather
Weather history
Weather forecast

Temperature3.9°C (39.0°F)
Wind chill0.4°C (32.8°F)
Dew point0.0°C (32.0°F)
Winds 8 kts (4.1 m/s, 9.2 mph) North (350°)
Visibility10 mi. (16.1 km)
Clouds Ceiling: Broken clouds 2,100 ft. (640 m)
Overcast 3,500 ft. (1,067 m)
Altimeter29.96 in.Hg (1015 mB)
Relative humidity76 %
Density altitude-1,297 ft. (-395 m)
Sea-level pressure101.5 kPa (1015 mB, 29.97 in.Hg)
Remarks Automated weather observing station with precipitation discriminator
Flight conditions Marginal Visual Meteorological Conditions
Raw dataKORD 060651Z 35008KT 10SM BKN021 OVC035 04/00 A2996 RMK AO2 SLP148 T00390000
An unhandled exception has occurred. See browser dev tools for details. Reload 🗙